Time;durP1;ratioP1;P1;durP2;ratioP2;P2;SDS_P1;SDS_P2;PMS_P1;PMS_P2;Temp;Humidity;BMP_temperature;BMP_pressure;BME280_temperature;BME280_humidity;BME280_pressure;Samples;Min_cycle;Max_cycle;Signal;HPM_P1;HPM_P2
2023/07/08 00:01:41;;;;;;;;;17.33;17.33;;;;;25.86;41.96;100989.06;5015736;28;72001;-40
2023/07/08 00:04:07;;;;;;;;;19.67;17.67;;;;;25.84;41.91;100989.22;5007315;28;70782;-39
2023/07/08 00:06:32;;;;;;;;;21.33;19.67;;;;;25.82;41.97;100979.53;5019570;28;45614;-39
2023/07/08 00:08:58;;;;;;;;;20.67;18.67;;;;;25.80;41.94;100987.88;5006544;28;45361;-39
2023/07/08 00:11:23;;;;;;;;;20.67;18.33;;;;;25.77;42.46;100990.94;5014808;28;73561;-39
2023/07/08 00:13:48;;;;;;;;;20.67;17.33;;;;;25.76;42.44;100990.09;5011175;28;73820;-39
2023/07/08 00:16:17;;;;;;;;;18.33;18.33;;;;;25.75;42.34;100995.72;5013161;28;65530;-39
2023/07/08 00:18:42;;;;;;;;;20.00;18.33;;;;;25.73;42.38;100989.59;5016196;28;45434;-39
2023/07/08 00:21:14;;;;;;;;;22.33;20.67;;;;;25.73;43.10;100995.03;5003876;28;54909;-39
2023/07/08 00:23:40;;;;;;;;;23.67;18.67;;;;;25.72;42.39;101006.94;5014038;28;45462;-39
2023/07/08 00:26:31;;;;;;;;;23.00;21.67;;;;;25.70;42.41;101000.81;5012506;28;45381;-39
2023/07/08 00:28:57;;;;;;;;;26.00;20.00;;;;;25.68;42.29;101005.59;5007689;28;45294;-40
2023/07/08 00:31:25;;;;;;;;;21.33;18.33;;;;;25.63;42.60;101000.66;5009361;28;62653;-39
2023/07/08 00:33:52;;;;;;;;;21.00;19.00;;;;;25.61;43.02;100999.97;5013508;28;71541;-39
2023/07/08 00:36:18;;;;;;;;;20.67;18.00;;;;;25.60;42.83;101003.72;5009723;28;45518;-39
2023/07/08 00:38:45;;;;;;;;;24.67;22.33;;;;;25.59;42.75;101002.00;5007019;28;67956;-39
2023/07/08 00:41:40;;;;;;;;;24.33;22.67;;;;;25.58;42.77;101022.94;5008853;28;46141;-41
2023/07/08 00:44:10;;;;;;;;;19.33;18.00;;;;;25.55;43.34;101028.75;5005801;28;45844;-40
2023/07/08 00:46:49;;;;;;;;;23.67;20.67;;;;;25.53;42.81;101019.88;5017825;28;45351;-40
2023/07/08 00:49:38;;;;;;;;;21.67;19.33;;;;;25.50;43.06;101013.91;5030869;28;45759;-39
2023/07/08 00:52:36;;;;;;;;;23.67;21.00;;;;;25.49;42.79;101021.25;5014700;28;46224;-39
2023/07/08 00:55:06;;;;;;;;;20.00;17.33;;;;;25.47;43.09;101025.16;5011935;28;68266;-39
2023/07/08 00:57:35;;;;;;;;;22.67;19.00;;;;;25.46;43.49;101012.56;5014364;28;45506;-39
2023/07/08 01:00:08;;;;;;;;;19.00;18.33;;;;;25.45;42.97;101011.72;5012646;28;45638;-39
2023/07/08 01:02:38;;;;;;;;;21.67;20.33;;;;;25.43;43.85;101011.91;5010055;28;47017;-41
2023/07/08 01:05:13;;;;;;;;;20.67;19.67;;;;;25.41;43.61;101013.09;5026630;28;45539;-39
2023/07/08 01:07:41;;;;;;;;;19.33;13.33;;;;;25.40;43.95;101001.34;5012085;28;45406;-39
2023/07/08 01:10:12;;;;;;;;;22.00;18.33;;;;;25.38;44.02;101006.13;5006917;28;45824;-39
2023/07/08 01:12:47;;;;;;;;;24.00;21.33;;;;;25.37;43.48;101011.69;5022449;28;46856;-40
2023/07/08 01:15:14;;;;;;;;;20.67;20.00;;;;;25.35;43.91;101005.59;5024837;28;45807;-39
2023/07/08 01:17:40;;;;;;;;;24.00;19.33;;;;;25.33;43.75;101010.31;5012236;28;45577;-39
2023/07/08 01:20:06;;;;;;;;;22.33;19.00;;;;;25.32;43.44;101017.63;5015662;28;45475;-39
2023/07/08 01:22:35;;;;;;;;;22.33;20.67;;;;;25.31;43.55;101017.81;5014362;28;46129;-39
2023/07/08 01:25:03;;;;;;;;;20.67;18.00;;;;;25.30;44.42;101016.09;5018826;28;45522;-39
2023/07/08 01:27:30;;;;;;;;;19.67;17.67;;;;;25.28;44.18;101019.00;4999354;28;45424;-39
2023/07/08 01:29:55;;;;;;;;;20.00;17.67;;;;;25.26;43.99;101010.97;5008137;28;45514;-39
2023/07/08 01:32:20;;;;;;;;;24.33;20.00;;;;;25.24;44.36;101012.19;5002802;28;73147;-40
2023/07/08 01:34:59;;;;;;;;;15.67;15.33;;;;;25.21;43.86;101005.22;5020490;28;73125;-39
2023/07/08 01:37:29;;;;;;;;;26.67;20.67;;;;;25.19;44.42;101011.84;5019006;28;45612;-39
2023/07/08 01:39:55;;;;;;;;;20.33;19.33;;;;;25.18;44.60;101015.56;5019904;28;45399;-39
2023/07/08 01:42:20;;;;;;;;;16.67;15.67;;;;;25.17;44.12;101016.59;5015191;28;73858;-39
2023/07/08 01:44:47;;;;;;;;;20.67;17.67;;;;;25.16;44.10;101018.47;5011023;28;73122;-39
2023/07/08 01:47:18;;;;;;;;;21.00;19.00;;;;;25.17;44.45;101031.03;5014851;28;67122;-39
2023/07/08 01:49:45;;;;;;;;;17.67;16.67;;;;;25.17;44.56;101047.34;5015621;28;45438;-39
2023/07/08 01:52:12;;;;;;;;;23.33;19.00;;;;;25.19;44.72;101063.56;5008811;28;46305;-39
2023/07/08 01:54:37;;;;;;;;;25.67;23.33;;;;;25.17;45.12;101145.34;5017292;28;68867;-40
2023/07/08 01:57:03;;;;;;;;;17.67;17.67;;;;;25.09;44.59;101158.91;5017001;28;45513;-39
2023/07/08 01:59:28;;;;;;;;;19.33;18.00;;;;;25.07;44.98;101141.88;5017566;28;45602;-39
2023/07/08 02:01:55;;;;;;;;;21.33;18.67;;;;;25.09;45.02;101146.16;5015796;28;46117;-39
2023/07/08 02:04:21;;;;;;;;;17.00;17.00;;;;;25.10;45.05;101144.28;5011367;28;45433;-39
2023/07/08 02:06:55;;;;;;;;;16.67;16.00;;;;;25.11;44.53;101146.00;5013028;28;45487;-39
2023/07/08 02:09:20;;;;;;;;;12.33;12.33;;;;;25.12;44.97;101155.84;5012107;28;45445;-39
2023/07/08 02:11:46;;;;;;;;;13.33;12.00;;;;;25.13;44.43;101160.28;5017765;28;45383;-39
2023/07/08 02:14:11;;;;;;;;;11.00;11.00;;;;;25.14;44.58;101156.56;5019127;28;57579;-39
2023/07/08 02:16:36;;;;;;;;;11.33;9.00;;;;;25.17;44.03;101148.06;5012221;28;67043;-39
2023/07/08 02:19:02;;;;;;;;;8.67;7.67;;;;;25.18;44.65;101147.03;5012587;28;67575;-39
2023/07/08 02:21:30;;;;;;;;;7.67;6.00;;;;;25.19;44.64;101148.75;5017390;28;65552;-39
2023/07/08 02:23:56;;;;;;;;;8.67;7.33;;;;;25.18;44.60;101146.19;5014967;28;45483;-40
2023/07/08 02:26:21;;;;;;;;;7.67;6.67;;;;;25.18;44.46;101140.75;5017175;28;62530;-39
2023/07/08 02:28:46;;;;;;;;;7.00;6.00;;;;;25.16;44.92;101142.78;5019036;28;65913;-40
2023/07/08 02:31:11;;;;;;;;;8.67;6.00;;;;;25.14;44.28;101145.66;5017778;28;46886;-39
2023/07/08 02:33:37;;;;;;;;;4.00;4.00;;;;;25.12;44.95;101139.53;5001443;28;67145;-39
2023/07/08 02:36:02;;;;;;;;;6.00;4.33;;;;;25.08;44.98;101133.59;5018409;28;45285;-39
2023/07/08 02:38:28;;;;;;;;;4.00;4.00;;;;;25.04;46.47;101120.47;5016720;28;45408;-40
2023/07/08 02:40:53;;;;;;;;;5.75;3.25;;;;;24.99;45.67;101118.25;5011250;28;45803;-40
2023/07/08 02:43:18;;;;;;;;;3.25;3.25;;;;;24.95;46.31;101105.97;5009675;28;47365;-39
2023/07/08 02:45:44;;;;;;;;;2.00;2.00;;;;;24.91;46.60;101097.31;5015382;28;69500;-39
2023/07/08 02:48:09;;;;;;;;;2.00;2.00;;;;;24.87;46.35;101092.34;5014343;28;45485;-39
2023/07/08 02:50:34;;;;;;;;;3.00;3.00;;;;;24.82;47.35;101091.97;5011212;28;75954;-40
2023/07/08 02:52:59;;;;;;;;;3.25;2.50;;;;;24.77;46.25;101087.03;5016003;28;71499;-40
2023/07/08 02:55:25;;;;;;;;;2.50;2.50;;;;;24.73;47.02;101091.06;5016422;28;65466;-40
2023/07/08 02:57:50;;;;;;;;;3.00;2.00;;;;;24.70;47.06;101080.53;5008012;28;67009;-40
2023/07/08 03:00:15;;;;;;;;;3.00;3.00;;;;;24.68;47.06;101074.41;5016469;28;72155;-40
2023/07/08 03:02:41;;;;;;;;;2.50;2.50;;;;;24.67;47.14;101084.44;5015396;28;45358;-40
2023/07/08 03:05:07;;;;;;;;;3.25;2.00;;;;;24.65;47.40;101077.44;5014500;28;46068;-40
2023/07/08 03:07:33;;;;;;;;;2.00;2.00;;;;;24.61;46.74;101074.16;5016710;28;45407;-40
2023/07/08 03:09:58;;;;;;;;;2.00;2.00;;;;;24.58;47.13;101067.19;5007907;28;57399;-41
2023/07/08 03:12:23;;;;;;;;;2.25;2.25;;;;;24.56;46.77;101068.34;5007677;28;55870;-40
2023/07/08 03:14:49;;;;;;;;;2.75;2.00;;;;;24.53;46.84;101061.38;5016701;28;45693;-40
2023/07/08 03:17:14;;;;;;;;;2.75;1.00;;;;;24.52;46.91;101064.28;5012585;28;45522;-40
2023/07/08 03:19:40;;;;;;;;;2.00;1.75;;;;;24.50;46.79;101074.47;5016329;28;72670;-40
2023/07/08 03:22:07;;;;;;;;;1.75;1.75;;;;;24.49;46.45;101072.75;5014760;28;45876;-40
2023/07/08 03:24:32;;;;;;;;;2.00;1.50;;;;;24.51;46.74;101068.88;5014924;28;45958;-40
2023/07/08 03:27:00;;;;;;;;;2.00;2.00;;;;;24.52;46.87;101072.44;5015062;28;45277;-40
2023/07/08 03:29:25;;;;;;;;;1.25;0.75;;;;;24.53;46.01;101064.09;5010935;28;46243;-40
2023/07/08 03:31:50;;;;;;;;;4.25;1.00;;;;;24.54;46.63;101060.38;5017844;28;68551;-40
2023/07/08 03:34:17;;;;;;;;;2.00;2.00;;;;;24.54;46.67;101056.81;5012184;28;45407;-40
2023/07/08 03:36:48;;;;;;;;;1.50;1.00;;;;;24.53;46.49;101046.94;5017726;28;45522;-40
2023/07/08 03:39:15;;;;;;;;;1.00;1.00;;;;;24.52;46.75;101047.97;5014359;28;45365;-40
2023/07/08 03:41:41;;;;;;;;;1.50;1.50;;;;;24.50;45.89;101034.53;5016902;28;45374;-40
2023/07/08 03:44:06;;;;;;;;;1.00;1.00;;;;;24.48;46.33;101033.00;5013131;28;45379;-40
2023/07/08 03:46:31;;;;;;;;;1.50;1.00;;;;;24.45;46.12;101029.56;5015775;28;58908;-40
2023/07/08 03:48:56;;;;;;;;;3.25;1.00;;;;;24.43;46.26;101019.88;5015271;28;74539;-40
2023/07/08 03:51:24;;;;;;;;;0.00;0.00;;;;;24.42;46.43;101021.75;5014127;28;69031;-40
2023/07/08 03:53:51;;;;;;;;;2.00;2.00;;;;;24.42;46.78;101013.59;5016508;28;45472;-45
2023/07/08 03:56:16;;;;;;;;;4.25;1.00;;;;;24.42;46.68;101010.03;5012649;28;45579;-40
2023/07/08 03:58:41;;;;;;;;;2.75;1.25;;;;;24.40;46.72;101009.34;5011864;28;62841;-40
2023/07/08 04:01:17;;;;;;;;;1.25;1.00;;;;;24.37;47.00;101006.97;5012136;28;50780;-40
2023/07/08 04:03:44;;;;;;;;;2.00;2.00;;;;;24.36;46.62;101000.66;5014051;28;45527;-40
2023/07/08 04:06:09;;;;;;;;;2.00;2.00;;;;;24.33;46.70;100997.44;5015108;28;45351;-40
2023/07/08 04:08:34;;;;;;;;;3.00;1.00;;;;;24.31;46.85;100983.13;5004976;28;55161;-40
2023/07/08 04:11:00;;;;;;;;;1.00;1.00;;;;;24.26;46.67;100978.19;5013092;28;51526;-40
2023/07/08 04:13:25;;;;;;;;;4.00;2.00;;;;;24.24;46.74;100978.34;5012727;28;62192;-40
2023/07/08 04:15:56;;;;;;;;;2.00;2.00;;;;;24.20;46.70;100960.66;5014680;28;68880;-39
2023/07/08 04:18:21;;;;;;;;;0.25;0.25;;;;;24.17;47.01;100950.13;5012711;28;46090;-40
2023/07/08 04:20:52;;;;;;;;;3.00;3.00;;;;;24.13;46.41;100947.88;5014286;28;45492;-40
2023/07/08 04:23:20;;;;;;;;;4.00;3.00;;;;;24.08;46.85;100948.41;5007658;28;45282;-40
2023/07/08 04:25:46;;;;;;;;;2.50;2.50;;;;;24.05;46.48;100956.84;5006775;28;45542;-43
2023/07/08 04:28:12;;;;;;;;;3.00;3.00;;;;;24.04;46.73;100966.88;4997491;28;46725;-40
2023/07/08 04:30:40;;;;;;;;;2.67;2.67;;;;;24.05;46.62;100976.72;5012558;28;71943;-40
2023/07/08 04:33:07;;;;;;;;;3.00;3.00;;;;;24.07;46.35;100973.84;5017244;28;45497;-40
2023/07/08 04:35:33;;;;;;;;;2.50;1.00;;;;;24.08;46.66;100968.25;5015063;28;45491;-40
2023/07/08 04:38:00;;;;;;;;;2.50;2.50;;;;;24.16;46.55;100982.88;5012843;28;46143;-40
2023/07/08 04:40:25;;;;;;;;;3.00;1.25;;;;;24.20;46.31;100981.56;5005035;28;45415;-40
2023/07/08 04:42:51;;;;;;;;;2.00;2.00;;;;;24.24;46.48;100989.22;5008315;28;53120;-40
2023/07/08 04:45:17;;;;;;;;;2.00;2.00;;;;;24.24;46.81;100986.50;5014223;28;45594;-40
2023/07/08 04:47:43;;;;;;;;;2.50;1.75;;;;;24.23;46.39;100986.66;5003334;28;45960;-41
2023/07/08 04:50:10;;;;;;;;;2.33;2.33;;;;;24.22;46.98;101002.13;5014660;28;45717;-40
2023/07/08 04:52:35;;;;;;;;;1.25;1.25;;;;;24.19;47.16;101012.47;5016547;28;45399;-40
2023/07/08 04:55:00;;;;;;;;;2.00;2.00;;;;;24.15;47.51;101011.09;5017483;28;59963;-40
2023/07/08 04:57:26;;;;;;;;;3.00;2.00;;;;;24.15;47.05;101011.09;5006238;28;65275;-40
2023/07/08 04:59:51;;;;;;;;;3.00;2.00;;;;;24.18;47.10;101018.91;5014653;28;69723;-39
2023/07/08 05:02:16;;;;;;;;;4.25;3.00;;;;;24.23;47.08;101027.44;5018574;28;51347;-40
2023/07/08 05:04:42;;;;;;;;;3.25;2.00;;;;;24.32;47.06;101028.34;5012072;28;45372;-40
2023/07/08 05:07:07;;;;;;;;;4.67;3.67;;;;;24.40;47.22;101034.63;5015976;28;49582;-40
2023/07/08 05:09:32;;;;;;;;;1.00;1.00;;;;;24.48;47.18;101038.44;5017428;28;45714;-40
2023/07/08 05:11:58;;;;;;;;;1.75;1.75;;;;;24.50;46.66;101050.84;5015981;28;46504;-40
2023/07/08 05:14:23;;;;;;;;;1.00;1.00;;;;;24.46;46.63;101060.34;5017137;28;45438;-40
2023/07/08 05:16:48;;;;;;;;;4.50;3.00;;;;;24.44;46.86;101059.63;5015737;28;61639;-40
2023/07/08 05:19:14;;;;;;;;;2.50;1.75;;;;;24.45;47.35;101059.47;5017245;28;45779;-40
2023/07/08 05:21:39;;;;;;;;;3.25;3.25;;;;;24.49;46.87;101053.72;5013548;28;63805;-40
2023/07/08 05:24:05;;;;;;;;;2.50;2.00;;;;;24.52;47.27;101050.69;5019764;28;45376;-40
2023/07/08 05:26:31;;;;;;;;;2.00;2.00;;;;;24.56;47.38;101058.34;5016950;28;46132;-41
2023/07/08 05:28:56;;;;;;;;;3.00;3.00;;;;;24.60;47.10;101059.72;5020058;28;45299;-40
2023/07/08 05:31:21;;;;;;;;;2.75;2.75;;;;;24.63;46.98;101058.59;5016433;28;45249;-40
2023/07/08 05:33:47;;;;;;;;;2.75;2.75;;;;;24.64;46.79;101070.31;5009068;28;50757;-40
2023/07/08 05:36:12;;;;;;;;;4.00;3.25;;;;;24.65;47.04;101070.13;5017485;28;46013;-38
2023/07/08 05:38:38;;;;;;;;;4.00;3.00;;;;;24.63;47.44;101068.56;5014533;28;66233;-40
2023/07/08 05:41:03;;;;;;;;;3.00;3.00;;;;;24.61;47.63;101066.88;5019858;28;45458;-40
2023/07/08 05:43:28;;;;;;;;;4.00;2.75;;;;;24.61;47.45;101075.03;5014712;28;45888;-40
2023/07/08 05:46:00;;;;;;;;;2.00;2.00;;;;;24.64;47.51;101092.06;5014500;28;74405;-40
2023/07/08 05:48:26;;;;;;;;;2.00;2.00;;;;;24.65;47.01;101112.81;5014230;28;45350;-40
2023/07/08 05:50:51;;;;;;;;;3.75;2.50;;;;;24.61;47.60;101123.09;5017422;28;45403;-40
2023/07/08 05:53:19;;;;;;;;;3.75;2.50;;;;;24.65;47.66;101126.41;5019723;28;45709;-40
2023/07/08 05:55:45;;;;;;;;;3.00;3.00;;;;;24.70;47.97;101118.59;5015910;28;46742;-39
2023/07/08 05:58:10;;;;;;;;;1.00;1.00;;;;;24.74;47.88;101111.81;5013715;28;45420;-40
2023/07/08 06:00:36;;;;;;;;;4.00;3.00;;;;;24.80;47.89;101110.31;5019079;28;45669;-40
2023/07/08 06:03:02;;;;;;;;;3.00;2.00;;;;;24.82;47.29;101119.16;5017183;28;45628;-42
2023/07/08 06:05:27;;;;;;;;;2.00;1.75;;;;;24.85;48.07;101137.88;5015070;28;45749;-40
2023/07/08 06:07:53;;;;;;;;;4.00;3.00;;;;;24.91;47.30;101132.66;5010499;28;45461;-40
2023/07/08 06:10:18;;;;;;;;;7.00;2.00;;;;;25.07;47.78;101150.03;5014119;28;47205;-40
2023/07/08 06:12:43;;;;;;;;;2.00;2.00;;;;;25.18;47.36;101146.19;5012933;28;45510;-40
2023/07/08 06:15:09;;;;;;;;;2.67;2.33;;;;;25.21;46.90;101159.47;5001643;28;48171;-39
2023/07/08 06:17:35;;;;;;;;;2.67;2.33;;;;;25.20;47.56;101172.25;5017675;28;45327;-40
2023/07/08 06:20:01;;;;;;;;;3.00;3.00;;;;;25.21;47.43;101165.78;5014031;28;45489;-40
2023/07/08 06:22:27;;;;;;;;;2.00;1.00;;;;;25.31;46.78;101167.50;5008201;28;47195;-40
2023/07/08 06:24:52;;;;;;;;;3.00;3.00;;;;;25.35;47.69;101172.47;5013859;28;45999;-40
2023/07/08 06:27:18;;;;;;;;;3.00;3.00;;;;;25.33;47.29;101179.94;5014048;28;45704;-40
2023/07/08 06:29:45;;;;;;;;;2.75;2.00;;;;;25.35;47.80;101177.91;5018069;28;49970;-41
2023/07/08 06:32:10;;;;;;;;;4.50;3.00;;;;;25.39;47.46;101182.00;5012414;28;60522;-40
2023/07/08 06:34:35;;;;;;;;;2.50;2.50;;;;;25.49;47.32;101184.59;5010505;28;69119;-40
2023/07/08 06:37:01;;;;;;;;;3.00;3.00;;;;;25.63;47.56;101190.41;4993531;28;46150;-40
2023/07/08 06:39:26;;;;;;;;;4.00;3.00;;;;;26.42;46.92;101193.59;5012408;28;56038;-39
2023/07/08 06:41:51;;;;;;;;;3.25;3.25;;;;;29.41;44.28;101195.03;5017566;28;45339;-41
2023/07/08 06:44:17;;;;;;;;;2.25;2.25;;;;;32.67;39.65;101198.16;5015225;28;47959;-40
2023/07/08 06:46:42;;;;;;;;;4.00;2.00;;;;;35.31;34.19;101197.09;5010461;28;45322;-42
2023/07/08 06:49:11;;;;;;;;;2.50;2.00;;;;;37.64;31.70;101196.91;5018346;28;45288;-39
2023/07/08 06:51:37;;;;;;;;;3.75;2.00;;;;;39.46;28.33;101209.72;5014306;28;45402;-40
2023/07/08 06:54:04;;;;;;;;;3.75;2.25;;;;;40.44;24.89;101191.13;5019529;28;47284;-40
2023/07/08 06:56:30;;;;;;;;;1.25;1.25;;;;;41.39;25.54;101200.56;5012707;28;45424;-40
2023/07/08 06:58:56;;;;;;;;;2.00;2.00;;;;;42.55;21.41;101210.44;5016764;28;45455;-40
2023/07/08 07:01:22;;;;;;;;;3.00;1.50;;;;;42.95;21.05;101226.28;5014880;28;45826;-41
2023/07/08 07:03:47;;;;;;;;;1.75;1.75;;;;;42.97;20.37;101217.59;5017721;28;69111;-41
2023/07/08 07:06:12;;;;;;;;;1.00;1.00;;;;;43.19;18.79;101214.44;5017044;28;70897;-40
2023/07/08 07:08:38;;;;;;;;;5.00;2.00;;;;;43.42;19.89;101217.72;5010852;28;46010;-41
2023/07/08 07:11:03;;;;;;;;;3.00;1.25;;;;;43.79;19.71;101239.59;5014411;28;69388;-40
2023/07/08 07:13:29;;;;;;;;;0.75;0.75;;;;;43.67;18.11;101235.50;5015736;28;45890;-45
2023/07/08 07:15:54;;;;;;;;;1.50;1.50;;;;;43.94;19.86;101235.03;5015927;28;46098;-40
2023/07/08 07:18:19;;;;;;;;;3.00;2.00;;;;;44.72;18.53;101240.78;5013017;28;60892;-46
2023/07/08 07:20:50;;;;;;;;;1.25;1.25;;;;;44.76;17.08;101247.50;5010630;28;45583;-44
2023/07/08 07:23:15;;;;;;;;;3.75;2.00;;;;;44.75;16.83;101240.22;5012102;28;45595;-39
2023/07/08 07:25:41;;;;;;;;;2.25;1.25;;;;;45.19;17.72;101241.09;5011069;28;45478;-40
2023/07/08 07:28:06;;;;;;;;;1.50;1.00;;;;;45.79;18.07;101234.06;5011313;28;47173;-40
2023/07/08 07:30:32;;;;;;;;;2.00;2.00;;;;;46.65;17.53;101235.69;5017560;28;45570;-40
2023/07/08 07:33:00;;;;;;;;;1.00;1.00;;;;;47.09;15.82;101234.28;5018721;28;46076;-42
2023/07/08 07:35:26;;;;;;;;;0.25;0.25;;;;;47.05;15.31;101245.34;5015475;28;46552;-42
2023/07/08 07:37:51;;;;;;;;;2.00;2.00;;;;;47.33;16.56;101247.25;5010212;28;45727;-40
2023/07/08 07:40:16;;;;;;;;;0.75;0.75;;;;;48.00;15.77;101240.09;5014238;28;65313;-40
2023/07/08 07:42:43;;;;;;;;;2.00;2.00;;;;;48.19;15.47;101239.94;5014847;28;52330;-41
2023/07/08 07:45:09;;;;;;;;;1.25;1.25;;;;;48.30;15.62;101240.47;4988641;28;45750;-40
2023/07/08 07:47:35;;;;;;;;;2.50;2.00;;;;;48.97;14.39;101247.09;5016311;28;45421;-40
2023/07/08 07:50:02;;;;;;;;;2.25;2.25;;;;;49.40;14.89;101251.19;5018545;28;45378;-42
2023/07/08 07:52:27;;;;;;;;;1.25;1.25;;;;;49.75;14.34;101246.38;5015022;28;47123;-42
2023/07/08 07:54:54;;;;;;;;;2.25;2.00;;;;;50.21;14.77;101248.84;5014539;28;66147;-41
2023/07/08 07:57:19;;;;;;;;;3.75;2.00;;;;;50.45;14.38;101248.31;5013287;28;45351;-42
2023/07/08 07:59:45;;;;;;;;;2.00;2.00;;;;;50.56;13.57;101260.06;5009435;28;46083;-41
2023/07/08 08:02:11;;;;;;;;;2.50;2.50;;;;;50.17;13.27;101253.50;5010656;28;45621;-42
2023/07/08 08:04:37;;;;;;;;;3.00;3.00;;;;;49.90;14.06;101247.88;5014529;28;45511;-41
2023/07/08 08:07:02;;;;;;;;;3.25;3.25;;;;;49.97;14.41;101256.66;5010060;28;45482;-41
2023/07/08 08:09:27;;;;;;;;;1.00;1.00;;;;;50.31;13.94;101260.59;5016522;28;45443;-41
2023/07/08 08:11:54;;;;;;;;;2.00;2.00;;;;;50.72;13.17;101258.38;5010502;28;75408;-41
2023/07/08 08:14:20;;;;;;;;;2.25;2.25;;;;;50.91;13.42;101259.91;5011458;28;45328;-42
2023/07/08 08:16:45;;;;;;;;;3.75;3.00;;;;;51.19;13.04;101260.28;5006359;28;45700;-44
2023/07/08 08:19:10;;;;;;;;;3.00;2.50;;;;;51.19;12.80;101265.09;5003558;28;69116;-44
2023/07/08 08:21:35;;;;;;;;;3.00;3.00;;;;;51.21;13.25;101262.75;5005570;28;73772;-44
2023/07/08 08:24:01;;;;;;;;;5.33;2.00;;;;;51.88;12.92;101262.91;5018792;28;60710;-41
2023/07/08 08:26:27;;;;;;;;;0.25;0.25;;;;;52.87;12.75;101268.81;5020386;28;45600;-44
2023/07/08 08:28:52;;;;;;;;;2.50;2.50;;;;;53.58;12.38;101275.13;5009527;28;45492;-41
2023/07/08 08:31:17;;;;;;;;;3.25;2.75;;;;;53.62;12.08;101292.28;5010410;28;54634;-43
2023/07/08 08:33:43;;;;;;;;;2.33;2.33;;;;;53.23;12.24;101290.69;5015756;28;67313;-44
2023/07/08 08:36:08;;;;;;;;;6.67;6.67;;;;;53.11;11.17;101287.03;5020100;28;45518;-42
2023/07/08 08:38:34;;;;;;;;;4.67;4.00;;;;;53.44;11.46;101294.56;5007551;28;45426;-43
2023/07/08 08:41:03;;;;;;;;;2.25;2.25;;;;;53.31;11.25;101296.59;5020196;28;46297;-43
2023/07/08 08:43:35;;;;;;;;;6.75;2.75;;;;;52.94;11.76;101286.09;5020700;28;45430;-41
2023/07/08 08:46:05;;;;;;;;;3.75;3.75;;;;;52.57;11.41;101294.56;5022353;28;45641;-43
2023/07/08 08:48:33;;;;;;;;;2.75;2.25;;;;;52.17;11.83;101286.66;5021339;28;45423;-41
2023/07/08 08:51:05;;;;;;;;;3.75;3.00;;;;;52.32;12.88;101285.97;5021111;28;46453;-40
2023/07/08 08:53:30;;;;;;;;;2.00;2.00;;;;;52.95;12.52;101284.06;5015316;28;45529;-40
2023/07/08 08:56:22;;;;;;;;;3.25;3.25;;;;;53.56;12.48;101284.03;5021774;28;68315;-40
2023/07/08 08:59:14;;;;;;;;;4.25;3.25;;;;;53.92;10.46;101277.75;5022207;28;45754;-40
2023/07/08 09:01:39;;;;;;;;;4.75;2.25;;;;;53.92;11.37;101286.28;5017515;28;45767;-39
2023/07/08 09:04:16;;;;;;;;;2.00;2.00;;;;;54.09;11.07;101283.09;5020784;28;72026;-40
2023/07/08 09:06:42;;;;;;;;;4.00;4.00;;;;;54.25;11.50;101302.22;5019842;28;45404;-40
2023/07/08 09:09:20;;;;;;;;;2.50;2.50;;;;;53.99;11.78;101300.66;5030824;28;45398;-40
2023/07/08 09:11:53;;;;;;;;;3.50;2.50;;;;;54.39;11.84;101291.22;5021240;28;46092;-39
2023/07/08 09:14:30;;;;;;;;;3.33;3.33;;;;;54.03;11.47;101293.91;5020104;28;45699;-39
2023/07/08 09:16:58;;;;;;;;;5.75;3.00;;;;;53.66;11.36;101287.53;5019395;28;45344;-40
2023/07/08 09:19:24;;;;;;;;;3.67;3.67;;;;;54.00;10.86;101288.13;5023858;28;45400;-40
2023/07/08 09:22:38;;;;;;;;;3.00;3.00;;;;;54.60;11.45;101281.63;5022957;28;46280;-40
2023/07/08 09:25:13;;;;;;;;;3.50;3.50;;;;;54.34;11.10;101282.97;5026075;28;45573;-40
2023/07/08 09:27:38;;;;;;;;;2.67;2.67;;;;;54.47;11.16;101276.00;5011241;28;45387;-40
2023/07/08 09:30:04;;;;;;;;;3.50;3.50;;;;;54.46;10.53;101285.72;5016262;28;61595;-40
2023/07/08 09:32:33;;;;;;;;;3.67;3.67;;;;;55.03;11.39;101283.47;5019111;28;45483;-40
2023/07/08 09:35:05;;;;;;;;;3.67;3.67;;;;;54.76;10.87;101290.97;5019573;28;45329;-40
2023/07/08 09:37:33;;;;;;;;;3.00;3.00;;;;;53.12;11.22;101283.88;5009856;28;45474;-40
2023/07/08 09:40:00;;;;;;;;;3.00;3.00;;;;;51.27;12.27;101293.34;5018323;28;45456;-40
2023/07/08 09:42:35;;;;;;;;;3.00;2.25;;;;;49.25;13.32;101294.84;4999765;28;45529;-40
2023/07/08 09:45:11;;;;;;;;;3.25;3.25;;;;;47.31;14.80;101289.81;5001306;28;45240;-39
2023/07/08 09:47:39;;;;;;;;;5.75;3.25;;;;;46.35;16.16;101291.34;5008627;28;45389;-40
2023/07/08 09:50:17;;;;;;;;;5.00;5.00;;;;;45.37;16.47;101278.75;5015114;28;45426;-40
2023/07/08 09:52:43;;;;;;;;;3.00;3.00;;;;;44.18;17.32;101288.34;5011032;28;47112;-39
2023/07/08 09:55:11;;;;;;;;;3.50;3.50;;;;;44.26;18.09;101287.72;5012691;28;45798;-40
2023/07/08 09:57:37;;;;;;;;;3.00;3.00;;;;;45.52;17.05;101277.75;5017869;28;45522;-39
2023/07/08 10:00:12;;;;;;;;;4.00;4.00;;;;;47.03;16.45;101289.00;5014864;28;45476;-40
2023/07/08 10:02:43;;;;;;;;;8.00;3.00;;;;;48.19;15.14;101276.56;5012613;28;45415;-39
2023/07/08 10:05:11;;;;;;;;;6.00;4.00;;;;;48.60;15.25;101266.19;5015765;28;45668;-40
2023/07/08 10:07:37;;;;;;;;;4.50;4.50;;;;;49.06;14.48;101264.06;5019082;28;45559;-40
2023/07/08 10:10:07;;;;;;;;;6.50;5.00;;;;;49.85;14.64;101267.00;5015331;28;45892;-40
2023/07/08 10:12:35;;;;;;;;;4.00;4.00;;;;;49.87;14.42;101268.31;5011980;28;45868;-39
2023/07/08 10:15:15;;;;;;;;;4.67;4.67;;;;;49.70;14.94;101257.88;4989564;28;45361;-40
2023/07/08 10:17:41;;;;;;;;;1.50;1.50;;;;;50.27;13.91;101255.97;5010021;28;45415;-39
2023/07/08 10:20:13;;;;;;;;;4.50;4.50;;;;;50.95;13.44;101263.72;5018266;28;45742;-40
2023/07/08 10:22:46;;;;;;;;;4.00;4.00;;;;;51.16;13.81;101269.44;5019444;28;45538;-39
2023/07/08 10:25:40;;;;;;;;;4.25;4.25;;;;;51.50;13.41;101266.72;5033798;28;45396;-39
2023/07/08 10:28:24;;;;;;;;;3.25;3.25;;;;;51.11;13.30;101263.97;5004306;28;45519;-40
2023/07/08 10:31:07;;;;;;;;;7.33;5.00;;;;;51.25;13.59;101270.22;5031080;28;45364;-39
2023/07/08 10:34:04;;;;;;;;;5.50;3.75;;;;;50.72;13.00;101274.50;5016390;28;45418;-39
2023/07/08 10:36:48;;;;;;;;;4.33;4.00;;;;;49.69;13.59;101277.97;4997089;28;45832;-40
2023/07/08 10:39:40;;;;;;;;;4.00;4.00;;;;;49.72;13.47;101280.16;5016448;28;45737;-39
2023/07/08 10:42:31;;;;;;;;;5.33;5.33;;;;;49.92;13.29;101270.97;5014655;28;45389;-40
2023/07/08 10:44:56;;;;;;;;;5.33;4.00;;;;;49.99;13.75;101271.34;5014449;28;46394;-41
2023/07/08 10:48:02;;;;;;;;;6.25;4.50;;;;;49.38;14.24;101271.28;5003103;28;45419;-40
2023/07/08 10:50:33;;;;;;;;;3.33;3.33;;;;;48.49;14.68;101277.72;5015326;28;45554;-40
2023/07/08 10:53:20;;;;;;;;;4.75;3.50;;;;;48.12;14.90;101265.69;5013606;28;45380;-39
2023/07/08 10:55:59;;;;;;;;;7.00;5.00;;;;;47.49;15.46;101273.97;5016009;28;46114;-40
2023/07/08 10:58:43;;;;;;;;;5.00;4.00;;;;;46.77;16.07;101283.88;5026928;28;45423;-46
2023/07/08 11:01:39;;;;;;;;;4.00;4.00;;;;;46.45;16.15;101274.31;5009649;28;45930;-39
2023/07/08 11:04:26;;;;;;;;;5.67;5.67;;;;;46.95;16.26;101276.50;5010151;28;45883;-39
2023/07/08 11:07:10;;;;;;;;;8.00;7.00;;;;;46.51;16.43;101259.03;5012962;28;46278;-39
2023/07/08 11:09:44;;;;;;;;;7.25;6.00;;;;;46.44;16.85;101250.16;5030135;28;46078;-39
2023/07/08 11:12:21;;;;;;;;;2.00;2.00;;;;;46.61;16.22;101257.97;5015309;28;45547;-39
2023/07/08 11:14:52;;;;;;;;;5.33;4.33;;;;;45.96;16.35;101264.44;5015901;28;45440;-40
2023/07/08 11:17:30;;;;;;;;;5.25;5.25;;;;;45.72;17.36;101263.38;5024125;28;45561;-39
2023/07/08 11:20:25;;;;;;;;;4.00;4.00;;;;;45.86;16.92;101259.81;5018316;28;45396;-39
2023/07/08 11:23:05;;;;;;;;;3.75;3.75;;;;;45.33;16.45;101253.25;5008994;28;45340;-40
2023/07/08 11:25:31;;;;;;;;;5.00;4.50;;;;;44.88;17.43;101255.50;5011072;28;45702;-40
2023/07/08 11:28:02;;;;;;;;;5.00;4.00;;;;;44.65;16.11;101257.94;5013217;28;71687;-40
2023/07/08 11:30:30;;;;;;;;;5.00;5.00;;;;;44.32;17.11;101256.88;5009858;28;45533;-40